sensor_id;sensor_type;location;lat;lon;timestamp;P1;durP1;ratioP1;P2;durP2;ratioP2
48993;SDS011;34804;49.214;12.276;2022-08-19T00:01:24;32.35;;;26.67;;
48993;SDS011;34804;49.214;12.276;2022-08-19T00:03:56;30.73;;;27.23;;
48993;SDS011;34804;49.214;12.276;2022-08-19T00:06:24;30.98;;;27.58;;
48993;SDS011;34804;49.214;12.276;2022-08-19T00:08:52;29.58;;;26.45;;
48993;SDS011;34804;49.214;12.276;2022-08-19T00:11:19;33.25;;;26.73;;
48993;SDS011;34804;49.214;12.276;2022-08-19T00:13:51;33.58;;;26.98;;
48993;SDS011;34804;49.214;12.276;2022-08-19T00:16:22;30.95;;;27.25;;
48993;SDS011;34804;49.214;12.276;2022-08-19T00:18:52;31.15;;;27.83;;
48993;SDS011;34804;49.214;12.276;2022-08-19T00:21:22;35.63;;;30.13;;
48993;SDS011;34804;49.214;12.276;2022-08-19T00:23:50;33.08;;;27.95;;
48993;SDS011;34804;49.214;12.276;2022-08-19T00:26:17;30.80;;;27.50;;
48993;SDS011;34804;49.214;12.276;2022-08-19T00:28:45;33.47;;;28.70;;
48993;SDS011;34804;49.214;12.276;2022-08-19T00:31:12;30.98;;;27.63;;
48993;SDS011;34804;49.214;12.276;2022-08-19T00:33:39;31.83;;;28.10;;
48993;SDS011;34804;49.214;12.276;2022-08-19T00:36:07;30.83;;;27.30;;
48993;SDS011;34804;49.214;12.276;2022-08-19T00:38:36;31.63;;;28.20;;
48993;SDS011;34804;49.214;12.276;2022-08-19T00:41:05;33.00;;;29.45;;
48993;SDS011;34804;49.214;12.276;2022-08-19T00:43:33;33.08;;;29.48;;
48993;SDS011;34804;49.214;12.276;2022-08-19T00:45:59;33.08;;;29.52;;
48993;SDS011;34804;49.214;12.276;2022-08-19T00:48:31;36.28;;;30.00;;
48993;SDS011;34804;49.214;12.276;2022-08-19T00:50:59;33.35;;;29.77;;
48993;SDS011;34804;49.214;12.276;2022-08-19T00:53:28;33.80;;;30.15;;
48993;SDS011;34804;49.214;12.276;2022-08-19T00:55:58;33.38;;;29.33;;
48993;SDS011;34804;49.214;12.276;2022-08-19T00:58:29;34.13;;;30.52;;
48993;SDS011;34804;49.214;12.276;2022-08-19T01:00:58;32.83;;;29.17;;
48993;SDS011;34804;49.214;12.276;2022-08-19T01:03:27;33.95;;;30.20;;
48993;SDS011;34804;49.214;12.276;2022-08-19T01:06:15;33.15;;;29.63;;
48993;SDS011;34804;49.214;12.276;2022-08-19T01:08:46;35.17;;;30.90;;
48993;SDS011;34804;49.214;12.276;2022-08-19T01:11:15;34.25;;;30.65;;
48993;SDS011;34804;49.214;12.276;2022-08-19T01:13:42;35.22;;;31.50;;
48993;SDS011;34804;49.214;12.276;2022-08-19T01:16:15;34.63;;;29.98;;
48993;SDS011;34804;49.214;12.276;2022-08-19T01:18:43;35.10;;;30.02;;
48993;SDS011;34804;49.214;12.276;2022-08-19T01:21:15;34.95;;;29.85;;
48993;SDS011;34804;49.214;12.276;2022-08-19T01:23:54;35.00;;;30.30;;
48993;SDS011;34804;49.214;12.276;2022-08-19T01:26:22;33.65;;;29.98;;
48993;SDS011;34804;49.214;12.276;2022-08-19T01:28:52;34.13;;;30.40;;
48993;SDS011;34804;49.214;12.276;2022-08-19T01:31:27;35.20;;;29.98;;
48993;SDS011;34804;49.214;12.276;2022-08-19T01:33:58;33.50;;;29.50;;
48993;SDS011;34804;49.214;12.276;2022-08-19T01:39:14;33.03;;;27.70;;
48993;SDS011;34804;49.214;12.276;2022-08-19T01:41:45;33.63;;;29.05;;
48993;SDS011;34804;49.214;12.276;2022-08-19T01:44:13;35.35;;;28.65;;
48993;SDS011;34804;49.214;12.276;2022-08-19T01:46:44;32.10;;;28.55;;
48993;SDS011;34804;49.214;12.276;2022-08-19T01:49:14;32.40;;;28.85;;
48993;SDS011;34804;49.214;12.276;2022-08-19T01:51:42;33.58;;;29.92;;
48993;SDS011;34804;49.214;12.276;2022-08-19T01:54:09;34.92;;;30.05;;
48993;SDS011;34804;49.214;12.276;2022-08-19T01:56:38;38.70;;;30.30;;
48993;SDS011;34804;49.214;12.276;2022-08-19T01:59:08;35.78;;;29.85;;
48993;SDS011;34804;49.214;12.276;2022-08-19T02:01:38;36.45;;;28.50;;
48993;SDS011;34804;49.214;12.276;2022-08-19T02:04:05;34.03;;;29.65;;
48993;SDS011;34804;49.214;12.276;2022-08-19T02:06:33;34.35;;;28.98;;
48993;SDS011;34804;49.214;12.276;2022-08-19T02:09:00;34.20;;;29.27;;
48993;SDS011;34804;49.214;12.276;2022-08-19T02:11:29;32.50;;;28.23;;
48993;SDS011;34804;49.214;12.276;2022-08-19T02:14:00;31.20;;;27.70;;
48993;SDS011;34804;49.214;12.276;2022-08-19T02:16:29;31.38;;;28.08;;
48993;SDS011;34804;49.214;12.276;2022-08-19T02:18:56;31.40;;;28.10;;
48993;SDS011;34804;49.214;12.276;2022-08-19T02:21:27;32.38;;;27.92;;
48993;SDS011;34804;49.214;12.276;2022-08-19T02:23:55;31.77;;;27.05;;
48993;SDS011;34804;49.214;12.276;2022-08-19T02:26:22;31.55;;;26.42;;
48993;SDS011;34804;49.214;12.276;2022-08-19T02:28:49;31.42;;;27.20;;
48993;SDS011;34804;49.214;12.276;2022-08-19T02:31:17;31.85;;;27.52;;
48993;SDS011;34804;49.214;12.276;2022-08-19T02:33:47;31.10;;;27.67;;
48993;SDS011;34804;49.214;12.276;2022-08-19T02:36:15;32.03;;;27.88;;
48993;SDS011;34804;49.214;12.276;2022-08-19T02:38:46;32.47;;;27.70;;
48993;SDS011;34804;49.214;12.276;2022-08-19T02:41:30;29.65;;;26.45;;
48993;SDS011;34804;49.214;12.276;2022-08-19T02:43:59;32.60;;;28.75;;
48993;SDS011;34804;49.214;12.276;2022-08-19T02:46:47;30.63;;;26.85;;
48993;SDS011;34804;49.214;12.276;2022-08-19T02:49:17;29.75;;;25.95;;
48993;SDS011;34804;49.214;12.276;2022-08-19T02:51:45;27.52;;;24.58;;
48993;SDS011;34804;49.214;12.276;2022-08-19T02:54:12;30.98;;;27.45;;
48993;SDS011;34804;49.214;12.276;2022-08-19T02:56:40;31.77;;;27.23;;
48993;SDS011;34804;49.214;12.276;2022-08-19T02:59:08;30.65;;;26.83;;
48993;SDS011;34804;49.214;12.276;2022-08-19T03:01:38;30.63;;;26.67;;
48993;SDS011;34804;49.214;12.276;2022-08-19T03:04:08;31.02;;;27.52;;
48993;SDS011;34804;49.214;12.276;2022-08-19T03:06:37;31.10;;;27.35;;
48993;SDS011;34804;49.214;12.276;2022-08-19T03:09:06;29.13;;;25.70;;
48993;SDS011;34804;49.214;12.276;2022-08-19T03:11:33;31.35;;;28.05;;
48993;SDS011;34804;49.214;12.276;2022-08-19T03:14:01;28.55;;;25.10;;
48993;SDS011;34804;49.214;12.276;2022-08-19T03:16:30;29.73;;;26.58;;
48993;SDS011;34804;49.214;12.276;2022-08-19T03:18:59;31.45;;;27.48;;
48993;SDS011;34804;49.214;12.276;2022-08-19T03:21:27;31.55;;;27.20;;
48993;SDS011;34804;49.214;12.276;2022-08-19T03:24:00;31.15;;;27.27;;
48993;SDS011;34804;49.214;12.276;2022-08-19T03:26:29;30.10;;;26.80;;
48993;SDS011;34804;49.214;12.276;2022-08-19T03:28:57;30.73;;;27.42;;
48993;SDS011;34804;49.214;12.276;2022-08-19T03:31:31;32.63;;;29.23;;
48993;SDS011;34804;49.214;12.276;2022-08-19T03:34:19;30.70;;;27.40;;
48993;SDS011;34804;49.214;12.276;2022-08-19T03:36:55;30.20;;;27.02;;
48993;SDS011;34804;49.214;12.276;2022-08-19T03:39:24;31.48;;;27.75;;
48993;SDS011;34804;49.214;12.276;2022-08-19T03:41:52;31.38;;;27.98;;
48993;SDS011;34804;49.214;12.276;2022-08-19T03:44:42;34.42;;;27.02;;
48993;SDS011;34804;49.214;12.276;2022-08-19T03:47:10;30.75;;;26.77;;
48993;SDS011;34804;49.214;12.276;2022-08-19T03:49:42;30.05;;;26.55;;
48993;SDS011;34804;49.214;12.276;2022-08-19T03:52:09;29.73;;;26.52;;
48993;SDS011;34804;49.214;12.276;2022-08-19T03:54:36;26.95;;;23.98;;
48993;SDS011;34804;49.214;12.276;2022-08-19T03:57:04;26.60;;;23.85;;
48993;SDS011;34804;49.214;12.276;2022-08-19T03:59:33;29.92;;;24.23;;
48993;SDS011;34804;49.214;12.276;2022-08-19T04:02:02;26.92;;;24.05;;
48993;SDS011;34804;49.214;12.276;2022-08-19T04:04:35;28.45;;;24.08;;
48993;SDS011;34804;49.214;12.276;2022-08-19T04:07:03;26.70;;;23.42;;
48993;SDS011;34804;49.214;12.276;2022-08-19T04:09:30;27.48;;;24.58;;
48993;SDS011;34804;49.214;12.276;2022-08-19T04:11:59;27.67;;;23.33;;
48993;SDS011;34804;49.214;12.276;2022-08-19T04:14:26;26.83;;;24.02;;
48993;SDS011;34804;49.214;12.276;2022-08-19T04:16:57;27.10;;;24.33;;
48993;SDS011;34804;49.214;12.276;2022-08-19T04:19:25;26.75;;;23.88;;
48993;SDS011;34804;49.214;12.276;2022-08-19T04:21:53;27.23;;;23.20;;
48993;SDS011;34804;49.214;12.276;2022-08-19T04:24:21;29.30;;;23.52;;
48993;SDS011;34804;49.214;12.276;2022-08-19T04:26:48;27.35;;;24.35;;
48993;SDS011;34804;49.214;12.276;2022-08-19T04:29:17;26.60;;;23.80;;
48993;SDS011;34804;49.214;12.276;2022-08-19T04:31:51;26.73;;;23.88;;
48993;SDS011;34804;49.214;12.276;2022-08-19T04:34:20;26.63;;;23.58;;
48993;SDS011;34804;49.214;12.276;2022-08-19T04:36:49;25.80;;;22.73;;
48993;SDS011;34804;49.214;12.276;2022-08-19T04:39:18;27.50;;;24.27;;
48993;SDS011;34804;49.214;12.276;2022-08-19T04:41:48;28.98;;;24.10;;
48993;SDS011;34804;49.214;12.276;2022-08-19T04:44:34;24.63;;;21.85;;
48993;SDS011;34804;49.214;12.276;2022-08-19T04:47:11;26.58;;;22.80;;
48993;SDS011;34804;49.214;12.276;2022-08-19T04:49:38;26.05;;;22.63;;
48993;SDS011;34804;49.214;12.276;2022-08-19T04:52:05;26.10;;;23.30;;
48993;SDS011;34804;49.214;12.276;2022-08-19T04:54:32;29.95;;;23.20;;
48993;SDS011;34804;49.214;12.276;2022-08-19T04:57:04;25.40;;;22.77;;
48993;SDS011;34804;49.214;12.276;2022-08-19T04:59:34;29.48;;;24.13;;
48993;SDS011;34804;49.214;12.276;2022-08-19T05:02:02;29.23;;;24.70;;
48993;SDS011;34804;49.214;12.276;2022-08-19T05:04:29;32.75;;;24.45;;
48993;SDS011;34804;49.214;12.276;2022-08-19T05:06:58;29.17;;;25.95;;
48993;SDS011;34804;49.214;12.276;2022-08-19T05:09:27;25.77;;;23.00;;
48993;SDS011;34804;49.214;12.276;2022-08-19T05:12:15;25.13;;;22.30;;
48993;SDS011;34804;49.214;12.276;2022-08-19T05:14:42;24.67;;;22.00;;
48993;SDS011;34804;49.214;12.276;2022-08-19T05:17:11;24.20;;;21.60;;
48993;SDS011;34804;49.214;12.276;2022-08-19T05:19:59;25.33;;;21.35;;
48993;SDS011;34804;49.214;12.276;2022-08-19T05:22:45;25.83;;;23.08;;
48993;SDS011;34804;49.214;12.276;2022-08-19T05:25:14;26.33;;;23.50;;
48993;SDS011;34804;49.214;12.276;2022-08-19T05:27:45;23.25;;;20.77;;
48993;SDS011;34804;49.214;12.276;2022-08-19T05:30:13;23.50;;;20.60;;
48993;SDS011;34804;49.214;12.276;2022-08-19T05:32:40;23.55;;;21.05;;
48993;SDS011;34804;49.214;12.276;2022-08-19T05:35:08;25.10;;;19.95;;
48993;SDS011;34804;49.214;12.276;2022-08-19T05:37:37;21.60;;;19.30;;
48993;SDS011;34804;49.214;12.276;2022-08-19T05:40:08;21.83;;;18.02;;
48993;SDS011;34804;49.214;12.276;2022-08-19T05:42:36;20.52;;;18.38;;
48993;SDS011;34804;49.214;12.276;2022-08-19T05:45:03;22.88;;;19.45;;
48993;SDS011;34804;49.214;12.276;2022-08-19T05:47:30;21.45;;;18.80;;
48993;SDS011;34804;49.214;12.276;2022-08-19T05:49:58;21.15;;;18.95;;
48993;SDS011;34804;49.214;12.276;2022-08-19T05:52:25;21.05;;;18.50;;
48993;SDS011;34804;49.214;12.276;2022-08-19T05:54:53;21.20;;;18.90;;
48993;SDS011;34804;49.214;12.276;2022-08-19T05:57:22;20.45;;;17.85;;
48993;SDS011;34804;49.214;12.276;2022-08-19T05:59:50;20.98;;;18.58;;
48993;SDS011;34804;49.214;12.276;2022-08-19T06:04:54;21.42;;;18.95;;
48993;SDS011;34804;49.214;12.276;2022-08-19T06:07:20;21.77;;;18.58;;
48993;SDS011;34804;49.214;12.276;2022-08-19T06:09:47;20.40;;;18.13;;
48993;SDS011;34804;49.214;12.276;2022-08-19T06:12:33;20.38;;;17.48;;
48993;SDS011;34804;49.214;12.276;2022-08-19T06:15:03;20.95;;;18.48;;
48993;SDS011;34804;49.214;12.276;2022-08-19T06:17:32;19.63;;;17.63;;
48993;SDS011;34804;49.214;12.276;2022-08-19T06:20:04;20.45;;;18.35;;
48993;SDS011;34804;49.214;12.276;2022-08-19T06:22:37;19.20;;;17.27;;
48993;SDS011;34804;49.214;12.276;2022-08-19T06:25:05;21.73;;;17.77;;
48993;SDS011;34804;49.214;12.276;2022-08-19T06:27:32;20.42;;;18.23;;
48993;SDS011;34804;49.214;12.276;2022-08-19T06:29:59;21.67;;;18.33;;
48993;SDS011;34804;49.214;12.276;2022-08-19T06:32:27;19.88;;;17.73;;
48993;SDS011;34804;49.214;12.276;2022-08-19T06:34:54;20.98;;;17.80;;
48993;SDS011;34804;49.214;12.276;2022-08-19T06:37:21;18.55;;;15.95;;
48993;SDS011;34804;49.214;12.276;2022-08-19T06:39:48;18.50;;;15.93;;
48993;SDS011;34804;49.214;12.276;2022-08-19T06:42:16;19.02;;;15.65;;
48993;SDS011;34804;49.214;12.276;2022-08-19T06:44:47;17.13;;;15.07;;
48993;SDS011;34804;49.214;12.276;2022-08-19T06:47:20;15.77;;;14.13;;
48993;SDS011;34804;49.214;12.276;2022-08-19T06:49:52;16.20;;;13.30;;
48993;SDS011;34804;49.214;12.276;2022-08-19T06:52:26;15.02;;;13.43;;
48993;SDS011;34804;49.214;12.276;2022-08-19T06:54:53;14.88;;;12.93;;
48993;SDS011;34804;49.214;12.276;2022-08-19T06:57:25;15.15;;;13.55;;
48993;SDS011;34804;49.214;12.276;2022-08-19T06:59:52;13.65;;;12.15;;
48993;SDS011;34804;49.214;12.276;2022-08-19T07:02:19;16.33;;;12.73;;
48993;SDS011;34804;49.214;12.276;2022-08-19T07:04:47;13.68;;;12.27;;
48993;SDS011;34804;49.214;12.276;2022-08-19T07:07:18;15.60;;;12.73;;
48993;SDS011;34804;49.214;12.276;2022-08-19T07:09:47;13.52;;;12.10;;
48993;SDS011;34804;49.214;12.276;2022-08-19T07:12:29;13.35;;;11.63;;
48993;SDS011;34804;49.214;12.276;2022-08-19T07:15:00;14.00;;;12.25;;
48993;SDS011;34804;49.214;12.276;2022-08-19T07:17:28;13.10;;;11.80;;
48993;SDS011;34804;49.214;12.276;2022-08-19T07:19:56;15.48;;;12.88;;
48993;SDS011;34804;49.214;12.276;2022-08-19T07:22:30;14.20;;;12.55;;
48993;SDS011;34804;49.214;12.276;2022-08-19T07:24:58;13.45;;;12.05;;
48993;SDS011;34804;49.214;12.276;2022-08-19T07:27:26;13.10;;;11.70;;
48993;SDS011;34804;49.214;12.276;2022-08-19T07:29:53;14.23;;;12.05;;
48993;SDS011;34804;49.214;12.276;2022-08-19T07:32:22;14.00;;;11.68;;
48993;SDS011;34804;49.214;12.276;2022-08-19T07:34:52;13.95;;;10.82;;
48993;SDS011;34804;49.214;12.276;2022-08-19T07:37:21;14.30;;;11.82;;
48993;SDS011;34804;49.214;12.276;2022-08-19T07:39:50;15.35;;;11.68;;
48993;SDS011;34804;49.214;12.276;2022-08-19T07:42:16;16.77;;;11.85;;
48993;SDS011;34804;49.214;12.276;2022-08-19T07:44:47;12.32;;;11.02;;
48993;SDS011;34804;49.214;12.276;2022-08-19T07:47:16;12.23;;;10.68;;
48993;SDS011;34804;49.214;12.276;2022-08-19T07:50:05;12.82;;;11.02;;
48993;SDS011;34804;49.214;12.276;2022-08-19T07:52:33;11.82;;;10.43;;
48993;SDS011;34804;49.214;12.276;2022-08-19T07:55:03;14.93;;;12.05;;
48993;SDS011;34804;49.214;12.276;2022-08-19T07:57:31;13.88;;;11.38;;
48993;SDS011;34804;49.214;12.276;2022-08-19T07:59:58;13.65;;;12.25;;
48993;SDS011;34804;49.214;12.276;2022-08-19T08:02:25;14.23;;;12.13;;
48993;SDS011;34804;49.214;12.276;2022-08-19T08:04:52;13.15;;;11.07;;
48993;SDS011;34804;49.214;12.276;2022-08-19T08:07:38;12.00;;;10.50;;
48993;SDS011;34804;49.214;12.276;2022-08-19T08:10:23;12.30;;;10.65;;
48993;SDS011;34804;49.214;12.276;2022-08-19T08:12:51;12.98;;;10.45;;
48993;SDS011;34804;49.214;12.276;2022-08-19T08:15:36;14.25;;;10.60;;
48993;SDS011;34804;49.214;12.276;2022-08-19T08:18:09;15.53;;;12.13;;
48993;SDS011;34804;49.214;12.276;2022-08-19T08:20:37;12.73;;;10.70;;
48993;SDS011;34804;49.214;12.276;2022-08-19T08:23:05;12.65;;;10.13;;
48993;SDS011;34804;49.214;12.276;2022-08-19T08:25:53;12.13;;;10.60;;
48993;SDS011;34804;49.214;12.276;2022-08-19T08:28:23;14.23;;;9.85;;
48993;SDS011;34804;49.214;12.276;2022-08-19T08:30:55;11.32;;;9.73;;
48993;SDS011;34804;49.214;12.276;2022-08-19T08:33:24;12.50;;;10.10;;
48993;SDS011;34804;49.214;12.276;2022-08-19T08:36:09;11.43;;;10.23;;
48993;SDS011;34804;49.214;12.276;2022-08-19T08:38:37;12.38;;;9.70;;
48993;SDS011;34804;49.214;12.276;2022-08-19T08:41:13;11.35;;;9.43;;
48993;SDS011;34804;49.214;12.276;2022-08-19T08:43:49;11.25;;;9.93;;
48993;SDS011;34804;49.214;12.276;2022-08-19T08:49:02;15.15;;;10.32;;
48993;SDS011;34804;49.214;12.276;2022-08-19T08:51:46;14.73;;;11.38;;
48993;SDS011;34804;49.214;12.276;2022-08-19T08:54:27;11.98;;;10.60;;
48993;SDS011;34804;49.214;12.276;2022-08-19T08:57:36;13.05;;;10.88;;
48993;SDS011;34804;49.214;12.276;2022-08-19T09:00:10;16.52;;;10.10;;
48993;SDS011;34804;49.214;12.276;2022-08-19T09:02:43;9.95;;;8.95;;
48993;SDS011;34804;49.214;12.276;2022-08-19T09:05:16;12.20;;;9.30;;
48993;SDS011;34804;49.214;12.276;2022-08-19T09:15:45;9.75;;;8.48;;
48993;SDS011;34804;49.214;12.276;2022-08-19T09:18:15;11.82;;;10.02;;
48993;SDS011;34804;49.214;12.276;2022-08-19T09:20:46;10.50;;;8.48;;
48993;SDS011;34804;49.214;12.276;2022-08-19T09:23:15;10.82;;;8.32;;
48993;SDS011;34804;49.214;12.276;2022-08-19T09:25:42;11.10;;;8.73;;
48993;SDS011;34804;49.214;12.276;2022-08-19T09:28:09;10.38;;;8.93;;
48993;SDS011;34804;49.214;12.276;2022-08-19T09:30:50;9.32;;;8.05;;
48993;SDS011;34804;49.214;12.276;2022-08-19T09:33:18;9.77;;;8.45;;
48993;SDS011;34804;49.214;12.276;2022-08-19T09:35:46;10.13;;;9.00;;
48993;SDS011;34804;49.214;12.276;2022-08-19T09:38:19;11.30;;;9.00;;
48993;SDS011;34804;49.214;12.276;2022-08-19T09:40:46;11.20;;;8.63;;
48993;SDS011;34804;49.214;12.276;2022-08-19T09:43:13;11.90;;;8.45;;
48993;SDS011;34804;49.214;12.276;2022-08-19T09:45:58;10.63;;;8.48;;
48993;SDS011;34804;49.214;12.276;2022-08-19T09:48:26;9.70;;;7.55;;
48993;SDS011;34804;49.214;12.276;2022-08-19T09:50:53;10.18;;;8.38;;
48993;SDS011;34804;49.214;12.276;2022-08-19T09:53:20;10.82;;;8.07;;
48993;SDS011;34804;49.214;12.276;2022-08-19T09:55:51;9.63;;;7.60;;
48993;SDS011;34804;49.214;12.276;2022-08-19T09:58:20;10.80;;;8.15;;
48993;SDS011;34804;49.214;12.276;2022-08-19T10:00:52;8.50;;;7.30;;
48993;SDS011;34804;49.214;12.276;2022-08-19T10:03:20;9.68;;;7.88;;
48993;SDS011;34804;49.214;12.276;2022-08-19T10:05:51;10.68;;;8.13;;
48993;SDS011;34804;49.214;12.276;2022-08-19T10:08:24;9.48;;;8.32;;
48993;SDS011;34804;49.214;12.276;2022-08-19T10:10:54;10.27;;;7.50;;
48993;SDS011;34804;49.214;12.276;2022-08-19T10:13:25;10.90;;;8.80;;
48993;SDS011;34804;49.214;12.276;2022-08-19T10:15:54;11.45;;;8.75;;
48993;SDS011;34804;49.214;12.276;2022-08-19T10:18:23;9.60;;;8.23;;
48993;SDS011;34804;49.214;12.276;2022-08-19T10:21:01;9.80;;;8.63;;
48993;SDS011;34804;49.214;12.276;2022-08-19T10:23:37;11.68;;;8.93;;
48993;SDS011;34804;49.214;12.276;2022-08-19T10:26:06;10.38;;;8.35;;
48993;SDS011;34804;49.214;12.276;2022-08-19T10:28:34;11.02;;;8.05;;
48993;SDS011;34804;49.214;12.276;2022-08-19T10:31:09;10.00;;;8.75;;
48993;SDS011;34804;49.214;12.276;2022-08-19T10:33:38;10.80;;;7.68;;
48993;SDS011;34804;49.214;12.276;2022-08-19T10:36:21;10.98;;;8.07;;
48993;SDS011;34804;49.214;12.276;2022-08-19T10:38:50;10.30;;;8.13;;
48993;SDS011;34804;49.214;12.276;2022-08-19T10:41:23;13.00;;;8.60;;
48993;SDS011;34804;49.214;12.276;2022-08-19T10:43:56;9.60;;;7.03;;
48993;SDS011;34804;49.214;12.276;2022-08-19T10:46:29;10.88;;;7.85;;
48993;SDS011;34804;49.214;12.276;2022-08-19T10:48:59;10.10;;;7.93;;
48993;SDS011;34804;49.214;12.276;2022-08-19T10:51:27;9.88;;;7.70;;
48993;SDS011;34804;49.214;12.276;2022-08-19T10:54:15;10.90;;;7.90;;
48993;SDS011;34804;49.214;12.276;2022-08-19T10:56:56;8.88;;;7.53;;
48993;SDS011;34804;49.214;12.276;2022-08-19T10:59:24;11.82;;;7.95;;
48993;SDS011;34804;49.214;12.276;2022-08-19T11:02:01;10.40;;;7.65;;
48993;SDS011;34804;49.214;12.276;2022-08-19T11:04:29;9.85;;;7.25;;
48993;SDS011;34804;49.214;12.276;2022-08-19T11:06:58;9.90;;;7.85;;
48993;SDS011;34804;49.214;12.276;2022-08-19T11:09:25;8.05;;;6.70;;
48993;SDS011;34804;49.214;12.276;2022-08-19T11:11:59;10.57;;;7.00;;
48993;SDS011;34804;49.214;12.276;2022-08-19T11:14:30;8.73;;;6.13;;
48993;SDS011;34804;49.214;12.276;2022-08-19T11:16:59;8.93;;;6.65;;
48993;SDS011;34804;49.214;12.276;2022-08-19T11:19:27;9.95;;;6.70;;
48993;SDS011;34804;49.214;12.276;2022-08-19T11:21:54;8.07;;;6.35;;
48993;SDS011;34804;49.214;12.276;2022-08-19T11:24:25;7.95;;;6.50;;
48993;SDS011;34804;49.214;12.276;2022-08-19T11:26:54;9.07;;;6.53;;
48993;SDS011;34804;49.214;12.276;2022-08-19T11:29:26;8.47;;;6.70;;
48993;SDS011;34804;49.214;12.276;2022-08-19T11:31:53;7.65;;;6.50;;
48993;SDS011;34804;49.214;12.276;2022-08-19T11:34:22;7.72;;;6.82;;
48993;SDS011;34804;49.214;12.276;2022-08-19T11:36:53;9.18;;;6.57;;
48993;SDS011;34804;49.214;12.276;2022-08-19T11:39:24;8.85;;;6.40;;
48993;SDS011;34804;49.214;12.276;2022-08-19T11:41:53;9.02;;;7.03;;
48993;SDS011;34804;49.214;12.276;2022-08-19T11:44:21;8.23;;;6.50;;
48993;SDS011;34804;49.214;12.276;2022-08-19T11:46:48;9.57;;;7.07;;
48993;SDS011;34804;49.214;12.276;2022-08-19T11:49:16;9.30;;;7.50;;
48993;SDS011;34804;49.214;12.276;2022-08-19T11:51:48;9.98;;;8.30;;
48993;SDS011;34804;49.214;12.276;2022-08-19T11:54:19;12.02;;;7.45;;
48993;SDS011;34804;49.214;12.276;2022-08-19T11:56:45;8.93;;;7.28;;
48993;SDS011;34804;49.214;12.276;2022-08-19T11:59:14;9.38;;;7.72;;
48993;SDS011;34804;49.214;12.276;2022-08-19T12:01:41;9.82;;;7.72;;
48993;SDS011;34804;49.214;12.276;2022-08-19T12:04:09;10.15;;;7.63;;
48993;SDS011;34804;49.214;12.276;2022-08-19T12:06:37;9.02;;;7.25;;
48993;SDS011;34804;49.214;12.276;2022-08-19T12:09:06;8.55;;;7.47;;
48993;SDS011;34804;49.214;12.276;2022-08-19T12:11:35;8.48;;;6.70;;
48993;SDS011;34804;49.214;12.276;2022-08-19T12:14:04;7.95;;;6.95;;
48993;SDS011;34804;49.214;12.276;2022-08-19T12:16:31;8.90;;;7.15;;
48993;SDS011;34804;49.214;12.276;2022-08-19T12:18:59;8.38;;;6.65;;
48993;SDS011;34804;49.214;12.276;2022-08-19T12:21:31;8.25;;;7.03;;
48993;SDS011;34804;49.214;12.276;2022-08-19T12:23:59;8.10;;;7.15;;
48993;SDS011;34804;49.214;12.276;2022-08-19T12:26:29;8.43;;;7.38;;
48993;SDS011;34804;49.214;12.276;2022-08-19T12:28:58;10.95;;;7.57;;
48993;SDS011;34804;49.214;12.276;2022-08-19T12:31:26;11.57;;;8.50;;
48993;SDS011;34804;49.214;12.276;2022-08-19T12:33:54;11.50;;;9.05;;
48993;SDS011;34804;49.214;12.276;2022-08-19T12:36:22;34.35;;;8.57;;
48993;SDS011;34804;49.214;12.276;2022-08-19T12:38:49;16.98;;;9.77;;
48993;SDS011;34804;49.214;12.276;2022-08-19T12:41:17;12.00;;;8.85;;
48993;SDS011;34804;49.214;12.276;2022-08-19T12:43:45;12.55;;;8.90;;
48993;SDS011;34804;49.214;12.276;2022-08-19T12:46:11;10.13;;;7.75;;
48993;SDS011;34804;49.214;12.276;2022-08-19T12:48:39;11.40;;;8.82;;
48993;SDS011;34804;49.214;12.276;2022-08-19T12:51:09;9.40;;;7.70;;
48993;SDS011;34804;49.214;12.276;2022-08-19T12:53:43;9.30;;;8.30;;
48993;SDS011;34804;49.214;12.276;2022-08-19T12:56:10;9.75;;;8.25;;
48993;SDS011;34804;49.214;12.276;2022-08-19T12:58:39;11.23;;;8.93;;
48993;SDS011;34804;49.214;12.276;2022-08-19T13:01:16;10.77;;;8.02;;
48993;SDS011;34804;49.214;12.276;2022-08-19T13:03:48;13.77;;;9.27;;
48993;SDS011;34804;49.214;12.276;2022-08-19T13:06:16;12.63;;;10.68;;
48993;SDS011;34804;49.214;12.276;2022-08-19T13:08:45;12.70;;;10.38;;
48993;SDS011;34804;49.214;12.276;2022-08-19T13:11:13;13.82;;;9.80;;
48993;SDS011;34804;49.214;12.276;2022-08-19T13:13:45;13.57;;;9.90;;
48993;SDS011;34804;49.214;12.276;2022-08-19T13:16:14;14.43;;;10.98;;
48993;SDS011;34804;49.214;12.276;2022-08-19T13:18:41;14.10;;;11.25;;
48993;SDS011;34804;49.214;12.276;2022-08-19T13:21:13;15.00;;;11.93;;
48993;SDS011;34804;49.214;12.276;2022-08-19T13:23:41;16.60;;;11.77;;
48993;SDS011;34804;49.214;12.276;2022-08-19T13:26:08;15.43;;;12.75;;
48993;SDS011;34804;49.214;12.276;2022-08-19T13:28:36;14.77;;;12.27;;
48993;SDS011;34804;49.214;12.276;2022-08-19T13:31:22;17.50;;;12.15;;
48993;SDS011;34804;49.214;12.276;2022-08-19T13:34:13;14.23;;;12.13;;
48993;SDS011;34804;49.214;12.276;2022-08-19T13:36:41;16.77;;;12.05;;
48993;SDS011;34804;49.214;12.276;2022-08-19T13:39:08;13.65;;;12.20;;
48993;SDS011;34804;49.214;12.276;2022-08-19T13:41:35;13.63;;;11.90;;
48993;SDS011;34804;49.214;12.276;2022-08-19T13:44:03;14.38;;;11.02;;
48993;SDS011;34804;49.214;12.276;2022-08-19T13:46:32;18.75;;;11.38;;
48993;SDS011;34804;49.214;12.276;2022-08-19T13:48:59;16.08;;;11.40;;
48993;SDS011;34804;49.214;12.276;2022-08-19T13:51:26;18.27;;;10.93;;
48993;SDS011;34804;49.214;12.276;2022-08-19T13:53:53;15.57;;;10.85;;
48993;SDS011;34804;49.214;12.276;2022-08-19T13:56:21;16.42;;;11.82;;
48993;SDS011;34804;49.214;12.276;2022-08-19T13:58:51;17.50;;;11.35;;
48993;SDS011;34804;49.214;12.276;2022-08-19T14:01:22;23.85;;;12.15;;
48993;SDS011;34804;49.214;12.276;2022-08-19T14:03:50;18.98;;;13.20;;
48993;SDS011;34804;49.214;12.276;2022-08-19T14:06:17;17.42;;;13.77;;
48993;SDS011;34804;49.214;12.276;2022-08-19T14:08:45;63.60;;;15.90;;
48993;SDS011;34804;49.214;12.276;2022-08-19T14:11:12;85.20;;;17.35;;
48993;SDS011;34804;49.214;12.276;2022-08-19T14:13:39;21.77;;;15.43;;
48993;SDS011;34804;49.214;12.276;2022-08-19T14:16:10;56.97;;;16.63;;
48993;SDS011;34804;49.214;12.276;2022-08-19T14:18:38;17.42;;;13.70;;
48993;SDS011;34804;49.214;12.276;2022-08-19T14:21:06;39.35;;;16.10;;
48993;SDS011;34804;49.214;12.276;2022-08-19T14:23:34;41.38;;;16.25;;
48993;SDS011;34804;49.214;12.276;2022-08-19T14:26:07;18.30;;;15.23;;
48993;SDS011;34804;49.214;12.276;2022-08-19T14:28:35;22.60;;;15.35;;
48993;SDS011;34804;49.214;12.276;2022-08-19T14:31:02;56.83;;;19.58;;
48993;SDS011;34804;49.214;12.276;2022-08-19T14:33:29;40.15;;;18.35;;
48993;SDS011;34804;49.214;12.276;2022-08-19T14:35:56;33.97;;;18.88;;
48993;SDS011;34804;49.214;12.276;2022-08-19T14:38:25;27.58;;;18.67;;
48993;SDS011;34804;49.214;12.276;2022-08-19T14:43:53;29.58;;;22.30;;
48993;SDS011;34804;49.214;12.276;2022-08-19T14:46:21;31.95;;;24.52;;
48993;SDS011;34804;49.214;12.276;2022-08-19T14:48:53;32.10;;;25.13;;
48993;SDS011;34804;49.214;12.276;2022-08-19T14:51:22;29.25;;;23.15;;